Time;durP1;ratioP1;P1;durP2;ratioP2;P2;SDS_P1;SDS_P2;PMS_P1;PMS_P2;Temp;Humidity;BMP_temperature;BMP_pressure;BME280_temperature;BME280_humidity;BME280_pressure;Samples;Min_cycle;Max_cycle;Signal;HPM_P1;HPM_P2
2023/10/13 00:01:22;;;;;;;0.80;0.80;;;;;;;17.71;60.15;99899.44;5314109;26;20119;-95
2023/10/13 00:03:47;;;;;;;0.45;0.45;;;;;;;17.56;60.14;99901.19;5312962;26;20024;-95
2023/10/13 00:06:13;;;;;;;0.45;0.45;;;;;;;17.40;60.14;99914.38;5311884;26;20122;-96
2023/10/13 00:08:39;;;;;;;1.15;0.98;;;;;;;17.36;60.13;99910.22;5330548;26;20087;-95
2023/10/13 00:11:05;;;;;;;1.33;1.23;;;;;;;17.49;60.14;99915.59;5312495;26;20028;-96
2023/10/13 00:13:42;;;;;;;0.13;0.13;;;;;;;17.46;60.13;99923.69;5312288;26;20135;-96
2023/10/13 00:16:10;;;;;;;5.37;1.50;;;;;;;17.52;60.13;99925.13;5315545;26;20048;-96
2023/10/13 00:18:42;;;;;;;5.10;1.52;;;;;;;17.47;60.14;99930.66;5313165;26;20048;-96
2023/10/13 00:21:31;;;;;;;1.30;0.90;;;;;;;17.26;60.13;99930.09;5313749;26;20681;-95
2023/10/13 00:23:57;;;;;;;0.60;0.60;;;;;;;17.27;60.12;99928.28;5318691;26;20079;-95
2023/10/13 00:26:30;;;;;;;5.68;0.73;;;;;;;17.50;60.13;99914.66;5329839;26;20486;-95
2023/10/13 00:29:09;;;;;;;0.10;0.10;;;;;;;17.37;60.13;99913.69;5331219;26;20106;-96
2023/10/13 00:31:40;;;;;;;2.30;1.13;;;;;;;17.29;60.12;99915.94;5315364;26;20022;-94
2023/10/13 00:34:15;;;;;;;0.50;0.50;;;;;;;17.29;60.13;99910.66;5312526;26;20063;-96
2023/10/13 00:39:25;;;;;;;2.87;1.48;;;;;;;17.48;60.14;99906.03;5335260;26;20153;-94
2023/10/13 00:41:52;;;;;;;0.57;0.57;;;;;;;17.24;60.12;99904.78;5311132;26;26371;-94
2023/10/13 00:44:26;;;;;;;0.20;0.20;;;;;;;17.12;60.11;99919.50;5312168;26;20052;-93
2023/10/13 00:46:55;;;;;;;0.30;0.30;;;;;;;17.30;60.13;99907.94;5313755;26;20068;-94
2023/10/13 00:49:21;;;;;;;0.53;0.53;;;;;;;17.28;60.13;99908.97;5312818;26;20122;-95
2023/10/13 00:51:47;;;;;;;2.65;1.17;;;;;;;17.36;60.13;99918.13;5330381;26;21023;-94
2023/10/13 00:54:12;;;;;;;2.87;1.23;;;;;;;17.27;60.13;99909.87;5311344;26;20068;-93
2023/10/13 00:56:48;;;;;;;3.00;0.93;;;;;;;17.43;60.13;99910.72;5311567;26;20084;-93
2023/10/13 00:59:17;;;;;;;3.15;1.12;;;;;;;17.11;60.11;99912.56;5332547;26;20135;-94
2023/10/13 01:01:43;;;;;;;1.50;1.40;;;;;;;17.33;60.13;99913.03;5311252;26;20060;-95
2023/10/13 01:04:12;;;;;;;1.35;0.88;;;;;;;17.25;60.12;99906.50;5311109;26;20028;-94
2023/10/13 01:06:38;;;;;;;3.85;1.58;;;;;;;17.51;60.13;99908.50;5312132;26;20400;-96
2023/10/13 01:09:14;;;;;;;1.75;1.27;;;;;;;17.35;60.13;99907.69;5311097;26;20052;-95
2023/10/13 01:11:52;;;;;;;2.37;1.55;;;;;;;17.13;60.11;99903.63;5313755;26;20466;-95
2023/10/13 01:14:21;;;;;;;4.07;1.85;;;;;;;17.26;60.12;99897.66;5312810;26;20443;-93
2023/10/13 01:16:47;;;;;;;0.57;0.57;;;;;;;17.31;60.12;99893.00;5313563;26;20130;-95
2023/10/13 01:19:13;;;;;;;16.05;1.87;;;;;;;17.42;60.13;99896.69;5330286;26;20105;-94
2023/10/13 01:21:43;;;;;;;0.32;0.32;;;;;;;17.37;60.13;99900.53;5311769;26;20076;-95
2023/10/13 01:24:10;;;;;;;0.30;0.30;;;;;;;17.42;60.13;99895.84;5330139;26;20712;-94
2023/10/13 01:26:38;;;;;;;0.52;0.52;;;;;;;17.68;60.15;99891.72;5311392;26;20489;-95
2023/10/13 01:29:14;;;;;;;0.17;0.17;;;;;;;17.64;60.15;99890.19;5312013;26;20087;-94
2023/10/13 01:31:46;;;;;;;0.30;0.30;;;;;;;17.61;60.14;99900.91;5331115;26;20052;-95
2023/10/13 01:34:24;;;;;;;5.57;2.67;;;;;;;17.83;60.15;99887.34;5312459;26;20093;-94
2023/10/13 01:36:55;;;;;;;2.12;1.55;;;;;;;17.53;60.13;99897.88;5331573;26;20108;-95
2023/10/13 01:39:26;;;;;;;0.75;0.60;;;;;;;17.80;60.15;99893.66;5330030;26;20113;-95
2023/10/13 01:41:55;;;;;;;1.80;1.15;;;;;;;17.55;60.14;99891.59;5318767;26;20051;-93
2023/10/13 01:44:30;;;;;;;0.40;0.40;;;;;;;17.62;60.15;99892.06;5314217;26;20110;-96
2023/10/13 01:46:59;;;;;;;14.90;1.17;;;;;;;17.47;60.14;99897.28;5331071;26;20052;-95
2023/10/13 01:49:25;;;;;;;0.00;0.00;;;;;;;17.39;60.12;99899.50;5312328;26;20431;-95
2023/10/13 01:51:51;;;;;;;2.42;2.05;;;;;;;17.40;60.13;99893.31;5311297;26;20060;-95
2023/10/13 01:54:16;;;;;;;1.30;1.10;;;;;;;17.62;60.15;99903.44;5311683;26;20100;-95
2023/10/13 01:56:45;;;;;;;1.20;0.95;;;;;;;17.83;60.15;99906.62;5330175;26;20052;-95
2023/10/13 01:59:11;;;;;;;1.40;1.25;;;;;;;17.68;60.14;99913.62;5311170;26;20047;-94
2023/10/13 02:01:41;;;;;;;0.40;0.25;;;;;;;17.72;60.15;99906.41;5329516;26;20068;-95
2023/10/13 02:04:06;;;;;;;1.40;0.85;;;;;;;17.48;60.14;99909.50;5311698;26;20123;-95
2023/10/13 02:06:38;;;;;;;0.45;0.45;;;;;;;17.72;60.15;99909.03;5311706;26;20058;-93
2023/10/13 02:09:10;;;;;;;3.87;0.77;;;;;;;17.56;60.14;99902.97;5312896;26;20066;-95
2023/10/13 02:11:39;;;;;;;0.60;0.60;;;;;;;17.59;60.14;99894.87;5330747;26;20113;-94
2023/10/13 02:14:05;;;;;;;0.65;0.65;;;;;;;17.54;60.13;99894.31;5311904;26;20130;-93
2023/10/13 02:16:31;;;;;;;1.40;1.30;;;;;;;17.65;60.14;99898.00;5311388;26;20095;-95
2023/10/13 02:18:58;;;;;;;0.98;0.95;;;;;;;17.55;60.13;99901.28;5311253;26;20063;-94
2023/10/13 02:21:31;;;;;;;2.30;0.90;;;;;;;17.65;60.14;99905.03;5311487;26;20145;-95
2023/10/13 02:23:59;;;;;;;2.70;1.02;;;;;;;17.81;60.16;99897.97;5330840;26;20182;-94
2023/10/13 02:26:31;;;;;;;0.13;0.13;;;;;;;17.61;60.14;99901.75;5312176;26;20087;-95
2023/10/13 02:29:07;;;;;;;2.15;1.00;;;;;;;17.65;60.14;99894.53;5312969;26;20062;-94
2023/10/13 02:31:36;;;;;;;3.87;1.08;;;;;;;17.54;60.13;99895.16;5313438;26;20060;-94
2023/10/13 02:34:06;;;;;;;0.35;0.35;;;;;;;17.46;60.14;99898.22;5311450;26;20109;-91
2023/10/13 02:36:48;;;;;;;0.08;0.08;;;;;;;17.46;60.14;99900.84;5312546;26;20031;-95
2023/10/13 02:39:16;;;;;;;13.68;0.95;;;;;;;17.74;60.15;99909.78;5316580;26;20063;-93
2023/10/13 02:41:47;;;;;;;0.43;0.43;;;;;;;17.76;60.14;99914.06;5329994;26;20112;-94
2023/10/13 02:44:20;;;;;;;1.08;0.98;;;;;;;17.84;60.14;99902.22;5315426;26;20718;-95
2023/10/13 02:46:50;;;;;;;0.40;0.40;;;;;;;17.90;60.15;99909.75;5331346;26;20052;-94
2023/10/13 02:49:19;;;;;;;0.47;0.47;;;;;;;17.84;60.14;99912.75;5331349;26;20045;-94
2023/10/13 02:51:44;;;;;;;0.17;0.17;;;;;;;17.96;60.16;99912.00;5329908;26;20063;-94
2023/10/13 02:54:11;;;;;;;6.72;1.08;;;;;;;18.07;60.16;99917.50;5311345;26;20056;-95
2023/10/13 02:56:37;;;;;;;0.75;0.75;;;;;;;18.24;60.18;99919.97;5329572;26;20090;-94
2023/10/13 02:59:05;;;;;;;1.87;0.82;;;;;;;18.13;60.17;99932.91;5311931;26;20066;-95
2023/10/13 03:01:34;;;;;;;5.82;0.75;;;;;;;18.23;60.18;99930.59;5330323;26;20060;-96
2023/10/13 03:04:08;;;;;;;0.10;0.10;;;;;;;18.20;60.17;99931.59;5311799;26;20060;-96
2023/10/13 03:06:35;;;;;;;1.35;0.75;;;;;;;18.15;60.16;99932.81;5330311;26;20060;-95
2023/10/13 03:09:17;;;;;;;0.70;0.60;;;;;;;18.48;60.19;99930.78;5329720;26;20162;-96
2023/10/13 03:11:49;;;;;;;0.55;0.55;;;;;;;18.37;60.18;99934.06;5314936;26;20060;-94
2023/10/13 03:14:31;;;;;;;2.65;1.45;;;;;;;18.30;60.17;99924.84;5312948;26;20063;-95
2023/10/13 03:17:14;;;;;;;1.62;0.43;;;;;;;18.06;60.16;99928.97;5315442;26;20052;-93
2023/10/13 03:19:49;;;;;;;0.28;0.28;;;;;;;18.23;60.18;99923.53;5316613;26;20115;-92
2023/10/13 03:22:16;;;;;;;1.02;0.93;;;;;;;18.17;60.17;99921.25;5312910;26;20059;-94
2023/10/13 03:24:46;;;;;;;0.43;0.43;;;;;;;18.22;60.17;99921.84;5329800;26;20059;-94
2023/10/13 03:27:12;;;;;;;1.60;0.57;;;;;;;18.27;60.17;99911.88;5313135;26;20056;-93
2023/10/13 03:29:43;;;;;;;0.47;0.47;;;;;;;18.26;60.18;99901.44;5330965;26;20048;-92
2023/10/13 03:32:14;;;;;;;0.52;0.52;;;;;;;18.10;60.17;99906.75;5312102;26;20203;-94
2023/10/13 03:37:37;;;;;;;2.72;1.00;;;;;;;18.20;60.17;99902.63;5333609;26;20048;-95
2023/10/13 03:40:06;;;;;;;2.17;1.10;;;;;;;18.20;60.17;99889.44;5317121;26;20126;-95
2023/10/13 03:42:32;;;;;;;0.20;0.20;;;;;;;18.28;60.17;99891.63;5313031;26;20056;-95
2023/10/13 03:44:57;;;;;;;2.08;0.93;;;;;;;18.44;60.18;99883.59;5311305;26;20111;-93
2023/10/13 03:47:32;;;;;;;0.32;0.30;;;;;;;18.28;60.17;99866.13;5329340;26;20071;-95
2023/10/13 03:50:29;;;;;;;4.57;2.10;;;;;;;18.27;60.17;99860.97;5314375;26;20618;-94
2023/10/13 03:52:44;;;;;;;1.20;1.15;;;;;;;18.21;60.17;99871.84;5336452;26;20052;-93
2023/10/13 03:55:17;;;;;;;2.10;0.82;;;;;;;18.12;60.17;99880.31;5311881;26;20477;-95
2023/10/13 03:57:45;;;;;;;0.60;0.60;;;;;;;18.04;60.16;99879.00;5313822;26;20051;-95
2023/10/13 04:00:21;;;;;;;0.20;0.20;;;;;;;18.05;60.16;99874.59;5330646;26;20209;-94
2023/10/13 04:02:53;;;;;;;1.20;1.12;;;;;;;18.14;60.17;99867.91;5332187;26;20082;-94
2023/10/13 04:05:35;;;;;;;2.35;2.15;;;;;;;18.62;60.18;99867.53;5314077;26;20059;-95
2023/10/13 04:16:24;;;;;;;1.80;1.70;;;;;;;18.64;60.20;99863.00;5313083;26;20055;-95
2023/10/13 04:27:15;;;;;;;1.35;1.25;;;;;;;18.16;60.17;99863.37;5335795;26;20054;-96
2023/10/13 04:29:45;;;;;;;0.13;0.13;;;;;;;18.24;60.17;99858.50;5337383;26;20052;-96
2023/10/13 04:32:14;;;;;;;0.85;0.85;;;;;;;18.61;60.19;99872.84;5317234;26;20056;-95
2023/10/13 04:34:45;;;;;;;0.37;0.37;;;;;;;18.37;60.18;99875.25;5330875;26;20067;-94
2023/10/13 04:37:29;;;;;;;0.65;0.65;;;;;;;18.28;60.17;99862.66;5313429;26;20020;-95
2023/10/13 04:40:07;;;;;;;1.17;0.47;;;;;;;18.21;60.17;99861.31;5317127;26;20072;-95
2023/10/13 04:42:49;;;;;;;1.12;0.98;;;;;;;18.03;60.16;99856.25;5316122;26;20067;-96
2023/10/13 04:45:58;;;;;;;2.35;1.02;;;;;;;18.32;60.18;99862.34;5321809;26;20032;-94
2023/10/13 04:50:50;;;;;;;0.25;0.25;;;;;;;17.99;60.16;99869.72;5338965;26;20048;-96
2023/10/13 04:53:59;;;;;;;1.00;0.65;;;;;;;17.97;60.16;99872.41;5331510;26;20021;-95
2023/10/13 05:02:42;;;;;;;7.00;1.50;;;;;;;17.96;60.15;99880.41;5351275;26;20066;-96
2023/10/13 06:29:53;;;;;;;1.45;0.98;;;;;;;18.92;60.21;99983.41;5336773;26;20027;-95
2023/10/13 06:32:19;;;;;;;0.68;0.68;;;;;;;18.85;60.19;99987.38;5313086;26;20113;-95
2023/10/13 06:34:45;;;;;;;0.35;0.35;;;;;;;18.81;60.19;99993.78;5311943;26;20639;-94
2023/10/13 06:37:25;;;;;;;0.73;0.52;;;;;;;18.85;60.21;99995.28;5329972;26;20124;-95
2023/10/13 06:39:52;;;;;;;1.75;0.70;;;;;;;19.19;60.22;99996.69;5313760;26;20710;-95
2023/10/13 06:42:19;;;;;;;2.25;1.83;;;;;;;18.96;60.21;99992.84;5312196;26;20082;-95
2023/10/13 06:44:46;;;;;;;0.60;0.60;;;;;;;18.84;60.19;99990.97;5330867;26;20055;-95
2023/10/13 06:47:12;;;;;;;1.02;0.95;;;;;;;19.13;60.22;99997.03;5315542;26;20087;-95
2023/10/13 06:49:39;;;;;;;0.55;0.55;;;;;;;19.20;60.22;99993.09;5311807;26;20053;-95
2023/10/13 06:52:06;;;;;;;0.32;0.32;;;;;;;19.01;60.22;99995.19;5330474;26;20439;-95
2023/10/13 06:54:37;;;;;;;0.32;0.32;;;;;;;18.98;60.20;100004.16;5311605;26;20578;-94
2023/10/13 06:57:06;;;;;;;1.30;0.80;;;;;;;19.21;60.22;100010.63;5311711;26;20415;-94
2023/10/13 06:59:34;;;;;;;0.30;0.30;;;;;;;19.26;60.23;100011.16;5329946;26;20059;-94
2023/10/13 07:02:06;;;;;;;0.60;0.60;;;;;;;19.28;60.23;100017.19;5347975;26;20075;-96
2023/10/13 07:04:31;;;;;;;0.20;0.20;;;;;;;19.24;60.21;100020.97;5312627;26;20063;-96
2023/10/13 07:06:57;;;;;;;0.70;0.60;;;;;;;19.46;60.23;100015.19;5311124;26;20126;-94
2023/10/13 07:09:39;;;;;;;0.45;0.45;;;;;;;19.54;60.25;100018.19;5311012;26;20336;-95
2023/10/13 07:12:16;;;;;;;0.37;0.37;;;;;;;19.47;60.24;100022.16;5316078;26;20049;-94
2023/10/13 07:14:51;;;;;;;1.17;0.75;;;;;;;19.45;60.23;100020.56;5314254;26;20068;-95
2023/10/13 07:17:23;;;;;;;5.93;1.90;;;;;;;19.36;60.22;100013.22;5313158;26;20060;-94
2023/10/13 07:19:55;;;;;;;1.87;1.37;;;;;;;19.42;60.23;100021.59;5330330;26;20048;-95
2023/10/13 07:22:21;;;;;;;0.37;0.37;;;;;;;19.29;60.22;100023.31;5330583;26;20378;-94
2023/10/13 07:24:50;;;;;;;0.55;0.52;;;;;;;19.58;60.24;100029.41;5310947;26;20083;-93
2023/10/13 07:27:22;;;;;;;3.75;1.55;;;;;;;19.42;60.23;100024.25;5312037;26;20076;-94
2023/10/13 07:29:55;;;;;;;0.40;0.40;;;;;;;19.65;60.25;100024.59;5331228;26;20055;-94
2023/10/13 07:32:24;;;;;;;0.75;0.50;;;;;;;19.81;60.25;100023.47;5312863;26;20408;-94
2023/10/13 07:34:50;;;;;;;1.40;0.73;;;;;;;19.74;60.25;100014.25;5311836;26;20086;-94
2023/10/13 07:37:16;;;;;;;1.25;1.15;;;;;;;19.96;60.26;100018.97;5329220;26;20064;-94
2023/10/13 07:39:42;;;;;;;1.52;1.20;;;;;;;20.14;60.27;100016.91;5310633;26;20075;-94
2023/10/13 07:42:15;;;;;;;1.92;0.93;;;;;;;20.19;60.27;100017.44;5329303;26;20056;-94
2023/10/13 07:44:45;;;;;;;1.40;1.27;;;;;;;20.35;60.28;100025.19;5317610;26;20075;-94
2023/10/13 07:47:11;;;;;;;0.70;0.70;;;;;;;20.37;60.28;100018.84;5312321;26;20067;-94
2023/10/13 07:49:37;;;;;;;1.27;1.20;;;;;;;20.42;60.29;100018.53;5329054;26;20067;-94
2023/10/13 07:52:22;;;;;;;0.45;0.45;;;;;;;20.41;60.28;100014.22;5311006;26;20086;-95
2023/10/13 07:54:56;;;;;;;0.22;0.22;;;;;;;20.46;60.28;100018.22;5316254;26;20064;-94
2023/10/13 07:57:29;;;;;;;0.85;0.70;;;;;;;20.59;60.29;100022.69;5312541;26;20107;-96
2023/10/13 08:00:06;;;;;;;0.40;0.40;;;;;;;20.78;60.30;100016.00;5313239;26;20412;-94
2023/10/13 08:02:51;;;;;;;1.00;0.93;;;;;;;20.78;60.30;100013.34;5331833;26;20060;-95
2023/10/13 08:05:29;;;;;;;20.27;1.58;;;;;;;20.88;60.31;100020.66;5317401;26;20068;-94
2023/10/13 08:07:55;;;;;;;0.95;0.95;;;;;;;21.06;60.31;100008.78;5331927;26;20230;-94
2023/10/13 08:10:29;;;;;;;1.73;1.42;;;;;;;21.26;60.33;100013.50;5330379;26;20059;-94
2023/10/13 08:12:56;;;;;;;0.98;0.98;;;;;;;21.31;60.33;100006.09;5314219;26;20048;-93
2023/10/13 08:15:31;;;;;;;0.77;0.77;;;;;;;21.38;60.33;100004.69;5312071;26;20111;-94
2023/10/13 08:17:58;;;;;;;0.32;0.32;;;;;;;21.56;60.34;100004.31;5331355;26;20071;-93
2023/10/13 08:20:26;;;;;;;0.85;0.73;;;;;;;21.76;60.35;100001.00;5311991;26;20060;-95
2023/10/13 08:23:10;;;;;;;2.20;1.48;;;;;;;21.78;60.35;99998.25;5330310;26;20056;-94
2023/10/13 08:31:21;;;;;;;2.10;1.92;;;;;;;22.21;60.38;99998.53;5335998;26;20034;-94
2023/10/13 08:33:47;;;;;;;2.67;0.70;;;;;;;22.42;60.38;99998.69;5316525;26;20124;-93
2023/10/13 08:36:28;;;;;;;5.25;1.77;;;;;;;22.47;60.39;99994.72;5311594;26;20119;-94
2023/10/13 08:38:55;;;;;;;3.90;1.95;;;;;;;22.69;60.40;100004.50;5316286;26;20038;-95
2023/10/13 08:43:53;;;;;;;1.35;1.25;;;;;;;23.10;60.42;100000.44;5336661;26;20076;-93
2023/10/13 08:46:28;;;;;;;2.42;1.37;;;;;;;23.16;60.42;100007.91;5312935;26;20061;-95
2023/10/13 08:49:15;;;;;;;0.70;0.70;;;;;;;23.07;60.42;100000.69;5314576;26;20071;-94
2023/10/13 08:51:44;;;;;;;0.57;0.57;;;;;;;23.28;60.42;100009.59;5332103;26;20059;-95
2023/10/13 08:54:19;;;;;;;0.45;0.45;;;;;;;23.44;60.44;100009.19;5312483;26;20071;-94
2023/10/13 08:56:57;;;;;;;0.55;0.55;;;;;;;23.40;60.43;100008.59;5312670;26;20064;-94
2023/10/13 08:59:33;;;;;;;2.25;1.48;;;;;;;23.76;60.46;100014.56;5331148;26;20043;-94
2023/10/13 09:02:15;;;;;;;1.67;0.50;;;;;;;23.93;60.47;100007.84;5314680;26;20055;-95
2023/10/13 09:04:44;;;;;;;2.30;1.55;;;;;;;23.80;60.45;100008.84;5316506;26;20051;-94
2023/10/13 09:07:15;;;;;;;0.55;0.50;;;;;;;23.73;60.45;100013.00;5329968;26;20059;-94
2023/10/13 09:12:17;;;;;;;18.77;1.00;;;;;;;24.09;60.47;100011.75;5367796;26;20055;-94
2023/10/13 09:14:44;;;;;;;2.62;1.58;;;;;;;24.22;60.47;100005.41;5330082;26;20686;-95
2023/10/13 09:17:11;;;;;;;1.95;1.20;;;;;;;24.30;60.49;100001.12;5311628;26;20064;-95
2023/10/13 09:25:38;;;;;;;1.08;0.98;;;;;;;24.68;60.50;99997.00;5332393;26;20136;-95
2023/10/13 09:28:18;;;;;;;1.15;1.02;;;;;;;24.80;60.50;99991.44;5314245;26;20060;-94
2023/10/13 09:30:46;;;;;;;;;;;;;;;24.99;60.51;99998.72;5349324;26;20070;-94
2023/10/13 09:33:20;;;;;;;4.07;1.75;;;;;;;25.17;60.53;99998.91;5348463;26;19971;-94
2023/10/13 09:35:49;;;;;;;4.72;1.77;;;;;;;25.36;60.54;99998.97;5313728;26;20157;-94
2023/10/13 09:38:16;;;;;;;4.07;2.62;;;;;;;25.39;60.53;100000.50;5330050;26;20094;-95
2023/10/13 09:40:49;;;;;;;6.55;2.33;;;;;;;25.34;60.54;100000.91;5311096;26;20432;-96
2023/10/13 09:43:19;;;;;;;1.08;0.98;;;;;;;25.55;60.54;99999.94;5331143;26;20075;-93
2023/10/13 09:46:02;;;;;;;0.73;0.73;;;;;;;25.47;60.55;99997.97;5315688;26;20093;-95
2023/10/13 09:48:41;;;;;;;2.92;1.25;;;;;;;25.42;60.55;100002.03;5332050;26;20068;-95
2023/10/13 09:51:10;;;;;;;0.83;0.83;;;;;;;25.65;60.55;99999.00;5312758;26;20068;-95
2023/10/13 09:53:37;;;;;;;1.85;1.65;;;;;;;25.45;60.54;99999.94;5311899;26;20059;-95
2023/10/13 09:56:12;;;;;;;1.15;0.93;;;;;;;25.75;60.56;100000.84;5311539;26;20078;-95
2023/10/13 09:58:47;;;;;;;1.52;1.42;;;;;;;25.92;60.56;99995.66;5330732;26;20071;-95
2023/10/13 10:01:20;;;;;;;1.90;1.77;;;;;;;26.07;60.58;99998.75;5313353;26;20082;-94
2023/10/13 10:04:07;;;;;;;1.95;1.85;;;;;;;26.17;60.58;99988.03;5330625;26;20692;-95
2023/10/13 10:06:39;;;;;;;2.45;1.92;;;;;;;26.09;60.57;99985.25;5317663;26;20073;-94
2023/10/13 10:09:14;;;;;;;1.48;1.37;;;;;;;26.28;60.59;99990.56;5330764;26;20028;-94
2023/10/13 10:12:08;;;;;;;0.98;0.95;;;;;;;26.05;60.58;99986.53;5313130;26;20574;-95
2023/10/13 10:15:20;;;;;;;2.15;1.95;;;;;;;25.86;60.56;99984.72;5348160;26;20445;-94
2023/10/13 10:17:45;;;;;;;6.05;2.35;;;;;;;25.63;60.54;99981.44;5348077;26;20668;-94
2023/10/13 10:20:19;;;;;;;8.45;2.10;;;;;;;25.81;60.57;99977.16;5329455;26;20072;-94
2023/10/13 10:23:00;;;;;;;3.17;1.65;;;;;;;25.88;60.57;99972.91;5313621;26;20094;-93
2023/10/13 10:25:34;;;;;;;3.03;1.15;;;;;;;25.80;60.56;99986.13;5329768;26;20069;-95
2023/10/13 10:28:09;;;;;;;1.08;0.98;;;;;;;25.78;60.56;99976.56;5330204;26;20060;-95
2023/10/13 10:30:38;;;;;;;4.57;2.90;;;;;;;25.93;60.58;99965.31;5312740;26;20067;-94
2023/10/13 10:33:11;;;;;;;2.40;1.33;;;;;;;26.14;60.58;99967.00;5311910;26;20375;-95
2023/10/13 10:35:37;;;;;;;1.77;1.67;;;;;;;26.36;60.59;99956.00;5313361;26;20493;-94
2023/10/13 10:40:58;;;;;;;2.08;1.92;;;;;;;26.75;60.61;99945.19;5334453;26;20137;-95
2023/10/13 10:43:42;;;;;;;2.58;1.83;;;;;;;26.91;60.62;99938.19;5316596;26;20048;-94
2023/10/13 10:46:27;;;;;;;2.47;2.28;;;;;;;27.19;60.63;99932.87;5332248;26;20055;-95
2023/10/13 10:49:02;;;;;;;0.90;0.85;;;;;;;27.37;60.65;99932.87;5329423;26;20052;-96
2023/10/13 10:51:31;;;;;;;1.35;0.90;;;;;;;27.61;60.66;99921.56;5314444;26;20086;-96
2023/10/13 10:53:57;;;;;;;2.40;1.85;;;;;;;27.71;60.66;99920.53;5312512;26;20082;-95
2023/10/13 10:56:36;;;;;;;7.03;1.85;;;;;;;27.78;60.67;99915.41;5329597;26;20056;-96
2023/10/13 10:59:07;;;;;;;1.42;1.33;;;;;;;27.98;60.67;99906.19;5333386;26;20098;-96
2023/10/13 11:01:43;;;;;;;6.62;1.52;;;;;;;28.20;60.68;99912.88;5330234;26;20118;-95
2023/10/13 11:04:56;;;;;;;2.05;1.83;;;;;;;28.25;60.69;99918.59;5314279;26;20070;-95
2023/10/13 11:06:55;;;;;;;2.58;0.60;;;;;;;28.46;60.69;99912.88;5323918;26;20060;-96
2023/10/13 11:11:57;;;;;;;0.85;0.77;;;;;;;28.70;60.72;99912.97;5367972;26;20102;-95
2023/10/13 11:14:26;;;;;;;2.72;1.67;;;;;;;28.85;60.72;99909.66;5312090;26;20095;-95
2023/10/13 11:16:53;;;;;;;1.27;1.17;;;;;;;28.90;60.73;99904.72;5311132;26;20052;-96
2023/10/13 11:19:20;;;;;;;1.27;1.17;;;;;;;29.01;60.74;99901.72;5310914;26;20085;-95
2023/10/13 11:21:49;;;;;;;5.00;1.00;;;;;;;29.22;60.74;99898.56;5328997;26;20720;-96
2023/10/13 11:24:17;;;;;;;0.65;0.62;;;;;;;29.32;60.74;99896.56;5310681;26;20119;-95
2023/10/13 11:26:49;;;;;;;0.93;0.93;;;;;;;29.51;60.76;99888.22;5311431;26;20076;-96
2023/10/13 11:29:19;;;;;;;3.58;1.52;;;;;;;29.74;60.77;99890.25;5312888;26;20118;-95
2023/10/13 11:31:54;;;;;;;0.65;0.65;;;;;;;29.93;60.78;99887.22;5311388;26;20063;-96
2023/10/13 11:34:20;;;;;;;0.85;0.50;;;;;;;30.17;60.78;99883.66;5312845;26;20078;-96
2023/10/13 11:36:46;;;;;;;1.90;1.02;;;;;;;30.19;60.78;99879.78;5330387;26;20096;-95
2023/10/13 11:39:18;;;;;;;0.32;0.32;;;;;;;30.30;60.80;99873.25;5311804;26;20072;-95
2023/10/13 11:41:50;;;;;;;0.75;0.75;;;;;;;30.42;60.80;99871.84;5314705;26;20068;-94
2023/10/13 11:51:38;;;;;;;1.62;1.50;;;;;;;30.67;60.81;99869.91;5331053;26;20082;-95
2023/10/13 11:54:04;;;;;;;1.00;0.93;;;;;;;30.80;60.82;99875.56;5311878;26;20068;-96
2023/10/13 11:56:29;;;;;;;2.62;1.65;;;;;;;31.01;60.84;99866.03;5311964;26;20142;-96
2023/10/13 11:59:01;;;;;;;1.40;0.95;;;;;;;31.09;60.84;99855.22;5330225;26;20079;-95
2023/10/13 12:04:32;;;;;;;4.93;1.27;;;;;;;31.16;60.83;99861.56;5314281;26;20113;-96
2023/10/13 12:12:40;;;;;;;0.30;0.30;;;;;;;31.19;60.85;99858.53;5334658;26;20064;-96
2023/10/13 12:15:09;;;;;;;0.70;0.70;;;;;;;31.15;60.84;99855.34;5316594;26;20032;-95
2023/10/13 12:17:35;;;;;;;1.92;0.95;;;;;;;31.14;60.84;99859.03;5331569;26;20748;-96
2023/10/13 12:20:17;;;;;;;0.73;0.73;;;;;;;31.31;60.85;99856.28;5313016;26;20415;-96
2023/10/13 12:22:43;;;;;;;8.35;1.17;;;;;;;31.28;60.85;99853.94;5331961;26;20706;-96
2023/10/13 12:27:57;;;;;;;3.55;1.08;;;;;;;31.21;60.85;99853.81;5335957;26;20790;-96
2023/10/13 12:30:35;;;;;;;0.47;0.47;;;;;;;31.32;60.86;99847.19;5330794;26;20044;-96
2023/10/13 12:33:11;;;;;;;0.30;0.20;;;;;;;31.34;60.86;99845.16;5315824;26;20079;-96
2023/10/13 12:52:25;;;;;;;0.62;0.62;;;;;;;30.99;60.83;99831.25;5331974;26;20157;-96
2023/10/13 12:57:23;;;;;;;1.12;1.02;;;;;;;30.83;60.83;99828.69;5332002;26;20093;-96
2023/10/13 12:59:49;;;;;;;1.08;0.95;;;;;;;30.85;60.84;99830.19;5312099;26;20766;-96
2023/10/13 13:02:15;;;;;;;1.35;1.25;;;;;;;30.82;60.83;99822.47;5312178;26;20062;-96
2023/10/13 13:04:44;;;;;;;0.43;0.43;;;;;;;30.77;60.83;99821.34;5311948;26;20082;-96
2023/10/13 13:07:13;;;;;;;0.52;0.52;;;;;;;30.84;60.84;99812.38;5312686;26;20430;-96
2023/10/13 13:09:40;;;;;;;1.58;1.48;;;;;;;30.90;60.83;99810.81;5313113;26;20752;-96
2023/10/13 13:12:06;;;;;;;0.93;0.70;;;;;;;30.85;60.84;99808.66;5311824;26;20130;-96
2023/10/13 13:14:34;;;;;;;2.15;1.62;;;;;;;30.78;60.83;99810.41;5311901;26;20126;-96
2023/10/13 13:17:04;;;;;;;0.45;0.45;;;;;;;30.75;60.82;99812.59;5312600;26;20068;-96
2023/10/13 13:19:38;;;;;;;0.70;0.57;;;;;;;30.88;60.83;99812.00;5313392;26;20064;-95
2023/10/13 13:22:04;;;;;;;0.40;0.30;;;;;;;30.73;60.83;99812.75;5314014;26;20064;-96
2023/10/13 13:24:30;;;;;;;1.10;1.00;;;;;;;30.63;60.82;99808.66;5311416;26;20131;-96
2023/10/13 13:27:05;;;;;;;4.47;1.85;;;;;;;30.57;60.82;99803.94;5329995;26;20067;-96
2023/10/13 13:29:30;;;;;;;7.53;0.88;;;;;;;30.64;60.82;99805.78;5330761;26;20052;-96
2023/10/13 13:31:56;;;;;;;0.85;0.85;;;;;;;30.64;60.82;99803.09;5330169;26;20077;-95
2023/10/13 13:34:22;;;;;;;0.30;0.30;;;;;;;30.64;60.83;99816.53;5311768;26;20060;-96
2023/10/13 13:36:52;;;;;;;3.67;1.20;;;;;;;30.43;60.82;99813.59;5329821;26;20063;-96
2023/10/13 13:39:28;;;;;;;0.55;0.45;;;;;;;30.28;60.82;99812.63;5313096;26;20074;-95
2023/10/13 13:41:56;;;;;;;1.90;1.65;;;;;;;29.91;60.80;99814.09;5331765;26;20388;-95
2023/10/13 13:44:28;;;;;;;0.65;0.47;;;;;;;29.98;60.80;99814.22;5313246;26;20170;-95
2023/10/13 13:46:56;;;;;;;1.23;1.08;;;;;;;29.74;60.78;99817.78;5331108;26;20027;-96
2023/10/13 13:49:29;;;;;;;0.35;0.35;;;;;;;29.82;60.79;99809.75;5311811;26;20060;-96
2023/10/13 13:51:55;;;;;;;5.32;0.95;;;;;;;29.83;60.79;99811.44;5313938;26;20062;-96
2023/10/13 13:54:20;;;;;;;2.17;1.55;;;;;;;29.75;60.78;99801.53;5312420;26;20063;-96
2023/10/13 13:56:47;;;;;;;0.20;0.20;;;;;;;29.66;60.79;99813.28;5311707;26;20083;-96
2023/10/13 13:59:15;;;;;;;2.08;0.93;;;;;;;29.51;60.78;99798.88;5311856;26;20417;-96
2023/10/13 14:01:44;;;;;;;2.78;1.35;;;;;;;29.53;60.78;99804.91;5312591;26;20112;-96
2023/10/13 14:04:10;;;;;;;1.12;1.02;;;;;;;29.59;60.77;99805.09;5311847;26;20067;-95
2023/10/13 14:06:37;;;;;;;0.40;0.40;;;;;;;29.51;60.78;99804.25;5311752;26;20486;-96
2023/10/13 14:09:14;;;;;;;1.55;0.73;;;;;;;29.51;60.78;99799.72;5312202;26;20886;-96
2023/10/13 14:14:11;;;;;;;0.70;0.70;;;;;;;29.58;60.78;99797.22;5330373;26;20090;-96
2023/10/13 14:16:37;;;;;;;0.68;0.68;;;;;;;29.55;60.79;99792.16;5331120;26;20064;-96
2023/10/13 14:19:07;;;;;;;0.10;0.10;;;;;;;29.47;60.77;99793.03;5330067;26;20055;-96
2023/10/13 14:21:34;;;;;;;1.45;0.82;;;;;;;29.43;60.77;99790.81;5313686;26;20105;-96
2023/10/13 14:24:01;;;;;;;1.00;0.75;;;;;;;29.22;60.76;99792.16;5331028;26;20078;-96
2023/10/13 14:26:27;;;;;;;2.17;1.40;;;;;;;29.30;60.76;99788.66;5330530;26;20452;-96
2023/10/13 14:29:01;;;;;;;1.98;1.25;;;;;;;29.23;60.76;99788.50;5312096;26;20095;-96
2023/10/13 14:31:28;;;;;;;1.45;1.10;;;;;;;29.02;60.75;99785.47;5315093;26;20063;-96
2023/10/13 14:33:53;;;;;;;0.77;0.45;;;;;;;28.87;60.75;99784.47;5330164;26;20076;-96
2023/10/13 14:36:19;;;;;;;3.17;1.52;;;;;;;28.79;60.74;99784.41;5312030;26;20119;-96
2023/10/13 14:38:51;;;;;;;3.58;0.95;;;;;;;28.78;60.74;99780.03;5312284;26;20523;-96
2023/10/13 14:41:18;;;;;;;0.10;0.10;;;;;;;28.76;60.74;99787.41;5319269;26;20067;-96
2023/10/13 14:43:49;;;;;;;1.33;0.47;;;;;;;28.83;60.74;99775.03;5312406;26;20047;-96
2023/10/13 14:46:19;;;;;;;0.77;0.52;;;;;;;28.71;60.74;99772.69;5330946;26;20063;-96
2023/10/13 14:48:48;;;;;;;0.17;0.17;;;;;;;28.61;60.74;99771.13;5330757;26;20056;-96